CPX364 Details

Departure: Fort Worth Alliance Airport (KAFW)
Arrival: March Air Reserve Base (KRIV)
Route: SWABR5 DOSXX INK V94 TFD J169 TRM ARKOE1


Current Weather Information
KAFW 181453Z 03003KT 10SM FEW250 12/02 A3034 RMK AO2 SLP272 T01220022 53017
KRIV 181458Z AUTO 00000KT 10SM CLR 08/08 A3001 RMK AO2 SLP160 T00790079 52010